Time;durP1;ratioP1;P1;durP2;ratioP2;P2;SDS_P1;SDS_P2;PMS_P1;PMS_P2;Temp;Humidity;BMP_temperature;BMP_pressure;BME280_temperature;BME280_humidity;BME280_pressure;Samples;Min_cycle;Max_cycle;Signal;HPM_P1;HPM_P2
2024/03/18 00:02:16;;;;;;;9.10;6.63;;;;;;;;;;5038281;28;20220;-83
2024/03/18 00:05:21;;;;;;;10.80;7.03;;;;;;;;;;5039135;28;20213;-85
2024/03/18 00:08:25;;;;;;;7.47;6.07;;;;;;;;;;5050527;28;20546;-82
2024/03/18 00:11:30;;;;;;;9.73;6.37;;;;;;;;;;5050539;28;20689;-85
2024/03/18 00:14:35;;;;;;;8.77;6.50;;;;;;;;;;5061496;28;20177;-84
2024/03/18 00:17:40;;;;;;;9.57;6.10;;;;;;;;;;5050165;28;20224;-84
2024/03/18 00:20:44;;;;;;;8.57;6.50;;;;;;;;;;5038931;28;20182;-84
2024/03/18 00:23:48;;;;;;;10.13;6.10;;;;;;;;;;5039263;28;20173;-85
2024/03/18 00:26:52;;;;;;;8.47;5.93;;;;;;;;;;5050074;28;20177;-84
2024/03/18 00:29:57;;;;;;;7.73;6.13;;;;;;;;;;5050180;28;20177;-84
2024/03/18 00:33:02;;;;;;;7.67;6.03;;;;;;;;;;5048836;28;20212;-84
2024/03/18 00:36:06;;;;;;;9.67;6.83;;;;;;;;;;5049149;28;20350;-84
2024/03/18 00:39:11;;;;;;;8.53;6.63;;;;;;;;;;5050287;28;20185;-83
2024/03/18 00:42:16;;;;;;;7.70;6.37;;;;;;;;;;5049996;28;20212;-83
2024/03/18 00:45:20;;;;;;;8.53;6.57;;;;;;;;;;5038171;28;20228;-84
2024/03/18 00:48:25;;;;;;;11.00;6.57;;;;;;;;;;5049747;28;20181;-84
2024/03/18 00:51:29;;;;;;;8.47;6.47;;;;;;;;;;5037239;28;20208;-84
2024/03/18 00:54:33;;;;;;;10.57;6.03;;;;;;;;;;5062053;28;20177;-83
2024/03/18 00:57:38;;;;;;;10.07;6.60;;;;;;;;;;5037080;28;20177;-83
2024/03/18 01:00:42;;;;;;;11.27;6.93;;;;;;;;;;5049432;28;20177;-83
2024/03/18 01:03:47;;;;;;;8.53;6.43;;;;;;;;;;5060813;28;20180;-83
2024/03/18 01:06:51;;;;;;;8.27;6.33;;;;;;;;;;5025184;28;20205;-84
2024/03/18 01:09:56;;;;;;;11.23;6.83;;;;;;;;;;5048475;28;20181;-84
2024/03/18 01:13:00;;;;;;;11.20;6.60;;;;;;;;;;5048523;28;20220;-83
2024/03/18 01:16:04;;;;;;;8.00;6.73;;;;;;;;;;5048418;28;20176;-83
2024/03/18 01:19:08;;;;;;;9.30;7.10;;;;;;;;;;5048806;28;20181;-83
2024/03/18 01:22:14;;;;;;;8.37;6.90;;;;;;;;;;5048904;28;20212;-84
2024/03/18 01:25:18;;;;;;;10.37;6.33;;;;;;;;;;5027045;28;20213;-84
2024/03/18 01:28:23;;;;;;;9.83;7.00;;;;;;;;;;5037891;28;20173;-84
2024/03/18 01:31:27;;;;;;;8.17;6.87;;;;;;;;;;5037576;28;20216;-84
2024/03/18 01:34:31;;;;;;;10.70;7.63;;;;;;;;;;5061093;28;20181;-83
2024/03/18 01:37:36;;;;;;;9.23;6.47;;;;;;;;;;5039743;28;20169;-83
2024/03/18 01:40:41;;;;;;;13.37;7.40;;;;;;;;;;5051165;28;20550;-84
2024/03/18 01:43:46;;;;;;;8.67;7.00;;;;;;;;;;5049873;28;20175;-83
2024/03/18 01:46:50;;;;;;;9.33;6.43;;;;;;;;;;5061500;28;20208;-84
2024/03/18 01:49:55;;;;;;;9.80;7.07;;;;;;;;;;5048939;28;20177;-84
2024/03/18 01:53:00;;;;;;;11.63;7.07;;;;;;;;;;5060153;28;20212;-84
2024/03/18 01:56:09;;;;;;;10.03;6.73;;;;;;;;;;5048756;28;20181;-83
2024/03/18 01:59:13;;;;;;;11.07;7.23;;;;;;;;;;5048902;28;20177;-84
2024/03/18 02:02:17;;;;;;;7.33;6.10;;;;;;;;;;5048299;28;20217;-83
2024/03/18 02:05:22;;;;;;;11.50;6.60;;;;;;;;;;5046713;28;20213;-84
2024/03/18 02:08:27;;;;;;;7.83;6.97;;;;;;;;;;5059167;28;20184;-84
2024/03/18 02:11:31;;;;;;;8.63;7.10;;;;;;;;;;5059376;28;20212;-84
2024/03/18 02:14:36;;;;;;;10.27;6.80;;;;;;;;;;5036005;28;20177;-84
2024/03/18 02:17:40;;;;;;;8.07;6.50;;;;;;;;;;5059172;28;20173;-83
2024/03/18 02:20:44;;;;;;;10.77;6.77;;;;;;;;;;5036320;28;20185;-83
2024/03/18 02:23:49;;;;;;;9.47;6.47;;;;;;;;;;5037556;28;20177;-84
2024/03/18 02:26:54;;;;;;;8.60;6.50;;;;;;;;;;5035804;28;20216;-84
2024/03/18 02:29:58;;;;;;;14.73;7.33;;;;;;;;;;5046794;28;20181;-83
2024/03/18 02:33:03;;;;;;;10.90;7.07;;;;;;;;;;5025650;28;20224;-83
2024/03/18 02:36:08;;;;;;;7.40;5.87;;;;;;;;;;5027456;28;20185;-82
2024/03/18 02:39:12;;;;;;;9.63;6.67;;;;;;;;;;5054703;28;20176;-82
2024/03/18 02:42:17;;;;;;;11.10;6.83;;;;;;;;;;5054742;28;20220;-82
2024/03/18 02:45:22;;;;;;;9.30;6.67;;;;;;;;;;5056448;28;20192;-82
2024/03/18 02:48:28;;;;;;;8.57;6.37;;;;;;;;;;5031885;28;20182;-82
2024/03/18 02:51:33;;;;;;;8.37;6.13;;;;;;;;;;5054566;28;20217;-82
2024/03/18 02:54:37;;;;;;;9.10;7.33;;;;;;;;;;5054496;28;20184;-82
2024/03/18 02:57:42;;;;;;;8.70;6.77;;;;;;;;;;5066071;28;20176;-82
2024/03/18 03:00:46;;;;;;;9.53;7.50;;;;;;;;;;5042961;28;20181;-82
2024/03/18 03:03:51;;;;;;;9.37;7.37;;;;;;;;;;5065369;28;20189;-82
2024/03/18 03:06:55;;;;;;;9.90;7.50;;;;;;;;;;5054241;28;20208;-82
2024/03/18 03:10:03;;;;;;;10.70;7.13;;;;;;;;;;5055691;28;20165;-82
2024/03/18 03:13:07;;;;;;;8.80;7.37;;;;;;;;;;5044470;28;20216;-82
2024/03/18 03:16:12;;;;;;;9.07;7.10;;;;;;;;;;5043409;28;20185;-82
2024/03/18 03:19:16;;;;;;;10.90;7.30;;;;;;;;;;5066504;28;20181;-83
2024/03/18 03:22:21;;;;;;;10.80;7.53;;;;;;;;;;5055464;28;20208;-82
2024/03/18 03:25:26;;;;;;;11.27;7.47;;;;;;;;;;5067277;28;20177;-83
2024/03/18 03:28:30;;;;;;;9.67;6.23;;;;;;;;;;5044022;28;20185;-82
2024/03/18 03:31:34;;;;;;;8.40;5.73;;;;;;;;;;5058674;28;20216;-82
2024/03/18 03:34:38;;;;;;;8.13;5.70;;;;;;;;;;5057925;28;20188;-83
2024/03/18 03:37:44;;;;;;;8.27;6.00;;;;;;;;;;5069219;28;20168;-83
2024/03/18 03:40:54;;;;;;;8.30;5.53;;;;;;;;;;5035919;28;20181;-82
2024/03/18 03:43:59;;;;;;;7.63;5.30;;;;;;;;;;5058317;28;20204;-83
2024/03/18 03:47:03;;;;;;;4.87;4.07;;;;;;;;;;5057781;28;20189;-82
2024/03/18 03:50:09;;;;;;;6.70;4.37;;;;;;;;;;5058352;28;20184;-82
2024/03/18 03:53:14;;;;;;;7.20;4.30;;;;;;;;;;5057268;28;20212;-83
2024/03/18 03:56:18;;;;;;;6.80;4.10;;;;;;;;;;5056567;28;20173;-83
2024/03/18 03:59:23;;;;;;;5.70;4.10;;;;;;;;;;5056068;28;20185;-84
2024/03/18 04:02:27;;;;;;;9.63;4.87;;;;;;;;;;5056252;28;20221;-83
2024/03/18 04:05:32;;;;;;;6.73;4.77;;;;;;;;;;5056051;28;20161;-83
2024/03/18 04:08:37;;;;;;;7.90;4.70;;;;;;;;;;5067216;28;20185;-82
2024/03/18 04:11:41;;;;;;;11.53;4.33;;;;;;;;;;5054858;28;20208;-83
2024/03/18 04:14:47;;;;;;;6.37;4.10;;;;;;;;;;5066904;28;20181;-84
2024/03/18 04:17:52;;;;;;;7.23;4.20;;;;;;;;;;5055056;28;20177;-83
2024/03/18 04:20:59;;;;;;;7.50;4.87;;;;;;;;;;5054764;28;20181;-83
2024/03/18 04:24:03;;;;;;;6.63;4.80;;;;;;;;;;5054152;28;20173;-82
2024/03/18 04:27:08;;;;;;;7.57;4.90;;;;;;;;;;5054433;28;20216;-83
2024/03/18 04:30:16;;;;;;;8.13;5.30;;;;;;;;;;5043014;28;20177;-84
2024/03/18 04:33:20;;;;;;;10.43;6.17;;;;;;;;;;5054292;28;20220;-83
2024/03/18 04:36:24;;;;;;;10.03;5.93;;;;;;;;;;5058601;28;20173;-84
2024/03/18 04:39:28;;;;;;;7.27;4.50;;;;;;;;;;5056909;28;20181;-84
2024/03/18 04:42:33;;;;;;;7.03;4.77;;;;;;;;;;5032726;28;20220;-85
2024/03/18 04:45:38;;;;;;;6.13;4.70;;;;;;;;;;5045622;28;20661;-86
2024/03/18 04:48:42;;;;;;;9.47;5.13;;;;;;;;;;5045359;28;20177;-86
2024/03/18 04:51:46;;;;;;;7.93;4.67;;;;;;;;;;5045148;28;20222;-86
2024/03/18 04:54:51;;;;;;;6.87;4.77;;;;;;;;;;5044877;28;20185;-85
2024/03/18 04:57:55;;;;;;;6.93;4.60;;;;;;;;;;5044859;28;20177;-85
2024/03/18 05:01:01;;;;;;;6.20;5.00;;;;;;;;;;5044273;28;20185;-85
2024/03/18 05:04:05;;;;;;;8.40;5.00;;;;;;;;;;5032871;28;20634;-85
2024/03/18 05:07:09;;;;;;;8.57;5.03;;;;;;;;;;5044334;28;20212;-85
2024/03/18 05:10:21;;;;;;;8.03;5.53;;;;;;;;;;5045325;28;20181;-84
2024/03/18 05:13:25;;;;;;;10.33;5.97;;;;;;;;;;5044220;28;20209;-86
2024/03/18 05:16:35;;;;;;;7.00;5.63;;;;;;;;;;5055773;28;20176;-83
2024/03/18 05:19:40;;;;;;;9.00;5.70;;;;;;;;;;5043718;28;20542;-83
2024/03/18 05:22:44;;;;;;;9.13;5.03;;;;;;;;;;5042965;28;20221;-84
2024/03/18 05:25:50;;;;;;;6.13;4.73;;;;;;;;;;5054404;28;20185;-83
2024/03/18 05:28:54;;;;;;;11.23;7.27;;;;;;;;;;5031100;28;20622;-84
2024/03/18 05:32:05;;;;;;;6.87;5.40;;;;;;;;;;5042638;28;20220;-84
2024/03/18 05:35:09;;;;;;;6.00;4.77;;;;;;;;;;5043017;28;20181;-84
2024/03/18 05:38:13;;;;;;;6.57;4.37;;;;;;;;;;5039747;28;20177;-85
2024/03/18 05:41:18;;;;;;;7.90;4.27;;;;;;;;;;5043170;28;20181;-86
2024/03/18 05:44:22;;;;;;;5.87;4.73;;;;;;;;;;5037994;28;20661;-86
2024/03/18 05:47:26;;;;;;;6.37;4.13;;;;;;;;;;5037858;28;20208;-87
2024/03/18 05:50:30;;;;;;;8.87;5.60;;;;;;;;;;5038734;28;20580;-86
2024/03/18 05:53:35;;;;;;;9.73;5.40;;;;;;;;;;5038360;28;20177;-86
2024/03/18 05:56:40;;;;;;;6.00;4.33;;;;;;;;;;5039722;28;20184;-86
2024/03/18 05:59:53;;;;;;;7.70;4.70;;;;;;;;;;5039200;28;20177;-86
2024/03/18 06:02:58;;;;;;;6.93;4.47;;;;;;;;;;5037715;28;20701;-87
2024/03/18 06:06:02;;;;;;;9.13;5.13;;;;;;;;;;5037812;28;20181;-87
2024/03/18 06:09:06;;;;;;;8.13;4.47;;;;;;;;;;5038165;28;20185;-86
2024/03/18 06:12:10;;;;;;;8.97;4.63;;;;;;;;;;5025847;28;20208;-86
2024/03/18 06:15:14;;;;;;;5.50;4.63;;;;;;;;;;5038127;28;20180;-86
2024/03/18 06:18:18;;;;;;;6.00;4.53;;;;;;;;;;5026420;28;20177;-84
2024/03/18 06:21:28;;;;;;;7.53;4.30;;;;;;;;;;5036913;28;20625;-85
2024/03/18 06:28:23;;;;;;;8.07;5.47;;;;;;;;;;5036975;28;20596;-86
2024/03/18 06:31:27;;;;;;;8.67;6.27;;;;;;;;;;5036925;28;20216;-85
2024/03/18 06:34:31;;;;;;;10.00;6.37;;;;;;;;;;5037566;28;20189;-86
2024/03/18 06:37:36;;;;;;;10.90;7.00;;;;;;;;;;5025911;28;20177;-86
2024/03/18 06:40:41;;;;;;;9.50;6.47;;;;;;;;;;5037600;28;20184;-86
2024/03/18 06:43:45;;;;;;;8.90;6.40;;;;;;;;;;5037331;28;20178;-86
2024/03/18 06:46:49;;;;;;;10.60;6.07;;;;;;;;;;5025751;28;20204;-86
2024/03/18 06:49:53;;;;;;;9.23;6.63;;;;;;;;;;5037128;28;20177;-86
2024/03/18 06:52:57;;;;;;;15.37;10.53;;;;;;;;;;5037252;28;20216;-87
2024/03/18 06:56:04;;;;;;;8.07;5.57;;;;;;;;;;5038729;28;20184;-86
2024/03/18 06:59:08;;;;;;;9.33;7.13;;;;;;;;;;5037559;28;20523;-85
2024/03/18 07:02:12;;;;;;;11.93;7.83;;;;;;;;;;5049128;28;20676;-86
2024/03/18 07:05:17;;;;;;;8.87;7.43;;;;;;;;;;5041397;28;20180;-86
2024/03/18 07:08:21;;;;;;;8.67;5.87;;;;;;;;;;5042457;28;20220;-86
2024/03/18 07:11:25;;;;;;;7.87;6.23;;;;;;;;;;5042243;28;20181;-86
2024/03/18 07:14:30;;;;;;;9.23;6.57;;;;;;;;;;5042738;28;20177;-86
2024/03/18 07:17:37;;;;;;;12.87;6.47;;;;;;;;;;5030319;28;20180;-86
2024/03/18 07:20:41;;;;;;;7.83;5.47;;;;;;;;;;5041842;28;20189;-86
2024/03/18 07:23:47;;;;;;;6.30;5.30;;;;;;;;;;5030006;28;20181;-86
2024/03/18 07:26:51;;;;;;;8.70;5.83;;;;;;;;;;5040878;28;20209;-87
2024/03/18 07:30:00;;;;;;;10.37;9.00;;;;;;;;;;5041413;28;20181;-86
2024/03/18 07:33:06;;;;;;;9.57;6.50;;;;;;;;;;5052211;28;20216;-86
2024/03/18 07:36:10;;;;;;;7.60;5.33;;;;;;;;;;5041415;28;20176;-86
2024/03/18 07:39:14;;;;;;;9.20;6.23;;;;;;;;;;5052512;28;20177;-87
2024/03/18 07:42:18;;;;;;;8.73;6.37;;;;;;;;;;5041608;28;20220;-86
2024/03/18 07:45:23;;;;;;;6.77;6.00;;;;;;;;;;5039283;28;20204;-86
2024/03/18 07:48:28;;;;;;;7.57;5.20;;;;;;;;;;5050186;28;20209;-86
2024/03/18 07:51:32;;;;;;;8.40;5.10;;;;;;;;;;5028437;28;20220;-86
2024/03/18 07:54:37;;;;;;;9.03;4.73;;;;;;;;;;5041251;28;20181;-84
2024/03/18 07:57:41;;;;;;;5.80;4.50;;;;;;;;;;5044217;28;20181;-86
2024/03/18 08:00:52;;;;;;;7.50;4.73;;;;;;;;;;5044746;28;20533;-87
2024/03/18 08:03:56;;;;;;;5.87;4.60;;;;;;;;;;5044067;28;20630;-86
2024/03/18 08:07:01;;;;;;;7.57;3.50;;;;;;;;;;5043734;28;20201;-85
2024/03/18 08:10:06;;;;;;;5.13;3.50;;;;;;;;;;5032555;28;20181;-86
2024/03/18 08:13:11;;;;;;;5.40;3.60;;;;;;;;;;5029501;28;20213;-86
2024/03/18 08:16:15;;;;;;;5.93;3.37;;;;;;;;;;5038598;28;20188;-86
2024/03/18 08:19:20;;;;;;;7.23;3.50;;;;;;;;;;5039311;28;20180;-87
2024/03/18 08:22:24;;;;;;;7.03;3.20;;;;;;;;;;5028694;28;20217;-87
2024/03/18 08:25:29;;;;;;;6.37;3.70;;;;;;;;;;5052778;28;20185;-87
2024/03/18 08:28:33;;;;;;;6.07;3.70;;;;;;;;;;5041454;28;20209;-87
2024/03/18 08:31:37;;;;;;;5.40;3.70;;;;;;;;;;5040896;28;20216;-87
2024/03/18 08:34:43;;;;;;;7.73;3.57;;;;;;;;;;5040419;28;20181;-87
2024/03/18 08:37:49;;;;;;;7.87;3.60;;;;;;;;;;5038968;28;20626;-87
2024/03/18 08:40:54;;;;;;;13.60;4.77;;;;;;;;;;5037954;28;20180;-87
2024/03/18 08:43:58;;;;;;;6.00;3.83;;;;;;;;;;5038555;28;20204;-87
2024/03/18 08:47:04;;;;;;;6.97;4.30;;;;;;;;;;5038942;28;20181;-87
2024/03/18 08:50:08;;;;;;;8.47;5.03;;;;;;;;;;5049084;28;20184;-87
2024/03/18 08:53:34;;;;;;;5.70;3.87;;;;;;;;;;5038306;28;20216;-87
2024/03/18 08:56:43;;;;;;;7.27;3.63;;;;;;;;;;5040986;28;20177;-88
2024/03/18 08:59:50;;;;;;;10.37;4.03;;;;;;;;;;5043207;28;20519;-87
2024/03/18 09:03:26;;;;;;;6.57;3.53;;;;;;;;;;5030911;28;20685;-91
2024/03/18 09:06:31;;;;;;;8.63;4.30;;;;;;;;;;5033199;28;20180;-86
2024/03/18 09:09:38;;;;;;;7.03;4.27;;;;;;;;;;5030695;28;20177;-86
2024/03/18 09:12:43;;;;;;;11.73;3.90;;;;;;;;;;5039624;28;20216;-85
2024/03/18 09:15:49;;;;;;;9.50;4.50;;;;;;;;;;5040048;28;20176;-87
2024/03/18 09:18:53;;;;;;;6.20;4.30;;;;;;;;;;5042088;28;20181;-86
2024/03/18 09:21:57;;;;;;;6.30;5.00;;;;;;;;;;5040478;28;20220;-86
2024/03/18 09:25:03;;;;;;;6.47;4.80;;;;;;;;;;5038650;28;20181;-87
2024/03/18 09:28:09;;;;;;;8.13;5.00;;;;;;;;;;5039789;28;20212;-86
2024/03/18 09:31:13;;;;;;;6.90;4.23;;;;;;;;;;5040532;28;20184;-85
2024/03/18 09:34:18;;;;;;;7.43;5.10;;;;;;;;;;5041378;28;20177;-86
2024/03/18 09:37:23;;;;;;;9.90;5.37;;;;;;;;;;5040673;28;20177;-86
2024/03/18 09:40:28;;;;;;;8.30;4.50;;;;;;;;;;5051103;28;20181;-85
2024/03/18 09:43:34;;;;;;;7.23;4.70;;;;;;;;;;5040274;28;20185;-85
2024/03/18 09:46:38;;;;;;;11.90;6.07;;;;;;;;;;5039083;28;20177;-85
2024/03/18 09:49:42;;;;;;;8.27;5.80;;;;;;;;;;5038353;28;20177;-85
2024/03/18 09:52:48;;;;;;;8.90;6.07;;;;;;;;;;5038294;28;20237;-86
2024/03/18 09:55:53;;;;;;;10.60;6.50;;;;;;;;;;5037136;28;20539;-87
2024/03/18 09:58:57;;;;;;;8.33;6.73;;;;;;;;;;5037072;28;20177;-87
2024/03/18 10:02:04;;;;;;;10.27;6.50;;;;;;;;;;5037468;28;20216;-86
2024/03/18 10:05:09;;;;;;;10.43;6.17;;;;;;;;;;5037999;28;20180;-87
2024/03/18 10:08:15;;;;;;;8.43;5.93;;;;;;;;;;5037237;28;20220;-87
2024/03/18 10:11:23;;;;;;;8.43;6.50;;;;;;;;;;5038312;28;20185;-87
2024/03/18 10:14:27;;;;;;;8.97;6.13;;;;;;;;;;5038110;28;20177;-88
2024/03/18 10:17:32;;;;;;;12.17;6.77;;;;;;;;;;5037999;28;20177;-87
2024/03/18 10:20:38;;;;;;;14.47;7.00;;;;;;;;;;5037185;28;20176;-87
2024/03/18 10:23:47;;;;;;;8.90;6.60;;;;;;;;;;5027954;28;20181;-87
2024/03/18 10:26:53;;;;;;;10.27;6.67;;;;;;;;;;5037480;28;20181;-86
2024/03/18 10:29:57;;;;;;;9.30;6.80;;;;;;;;;;5048468;28;20511;-87
2024/03/18 10:33:11;;;;;;;12.23;6.10;;;;;;;;;;5036342;28;20224;-86
2024/03/18 10:36:33;;;;;;;10.80;6.57;;;;;;;;;;5016970;28;20185;-86
2024/03/18 10:39:54;;;;;;;8.90;6.37;;;;;;;;;;5036336;28;20182;-86
2024/03/18 10:43:01;;;;;;;13.00;6.03;;;;;;;;;;5036567;28;20213;-85
2024/03/18 10:46:05;;;;;;;9.87;6.30;;;;;;;;;;5037368;28;20181;-86
2024/03/18 10:49:17;;;;;;;8.40;6.23;;;;;;;;;;5037197;28;20204;-85
2024/03/18 10:52:22;;;;;;;10.43;6.30;;;;;;;;;;5037539;28;20217;-86
2024/03/18 10:55:30;;;;;;;10.23;6.43;;;;;;;;;;5036471;28;20180;-86
2024/03/18 10:58:36;;;;;;;8.50;6.30;;;;;;;;;;5035495;28;20176;-86
2024/03/18 11:01:41;;;;;;;14.57;5.93;;;;;;;;;;5046225;28;20212;-86
2024/03/18 11:04:46;;;;;;;12.70;5.73;;;;;;;;;;5036579;28;20181;-87
2024/03/18 11:07:52;;;;;;;8.83;5.37;;;;;;;;;;5014620;28;20188;-87
2024/03/18 11:10:58;;;;;;;13.40;5.63;;;;;;;;;;5036035;28;20642;-86
2024/03/18 11:14:02;;;;;;;9.33;5.83;;;;;;;;;;5035247;28;20173;-86
2024/03/18 11:17:06;;;;;;;10.67;5.87;;;;;;;;;;5035578;28;20177;-86
2024/03/18 11:20:16;;;;;;;7.83;5.23;;;;;;;;;;5012260;28;20180;-86
2024/03/18 11:23:32;;;;;;;7.60;5.30;;;;;;;;;;5046348;28;20212;-86
2024/03/18 11:26:40;;;;;;;9.10;5.53;;;;;;;;;;5035221;28;20519;-86
2024/03/18 11:29:50;;;;;;;10.87;5.97;;;;;;;;;;5034921;28;20216;-84
2024/03/18 11:32:55;;;;;;;8.80;5.43;;;;;;;;;;5037069;28;20704;-85
2024/03/18 11:36:02;;;;;;;8.87;5.70;;;;;;;;;;5036631;28;20177;-84
2024/03/18 11:39:12;;;;;;;8.93;5.60;;;;;;;;;;5036879;28;20177;-85
2024/03/18 11:42:16;;;;;;;7.93;5.60;;;;;;;;;;5036530;28;20221;-85
2024/03/18 11:45:20;;;;;;;11.53;5.80;;;;;;;;;;5026440;28;20212;-85
2024/03/18 11:48:24;;;;;;;10.80;5.53;;;;;;;;;;5034854;28;20672;-84
2024/03/18 11:51:29;;;;;;;6.67;5.70;;;;;;;;;;5038087;28;20216;-84
2024/03/18 11:54:33;;;;;;;7.40;5.07;;;;;;;;;;5040006;28;20185;-84
2024/03/18 11:57:37;;;;;;;9.00;5.77;;;;;;;;;;5040358;28;20180;-83
2024/03/18 12:00:42;;;;;;;12.90;5.63;;;;;;;;;;5050601;28;20173;-83
2024/03/18 12:03:49;;;;;;;8.60;5.63;;;;;;;;;;5039395;28;20189;-82
2024/03/18 12:06:54;;;;;;;8.30;5.37;;;;;;;;;;5039849;28;20189;-82
2024/03/18 12:09:59;;;;;;;12.80;6.80;;;;;;;;;;5039478;28;20204;-83
2024/03/18 12:13:04;;;;;;;9.57;5.63;;;;;;;;;;5043193;28;20220;-84
2024/03/18 12:16:15;;;;;;;7.70;5.30;;;;;;;;;;5040861;28;20638;-84
2024/03/18 12:19:19;;;;;;;8.27;5.20;;;;;;;;;;5040857;28;20177;-82
2024/03/18 12:22:25;;;;;;;8.80;5.60;;;;;;;;;;5040416;28;20212;-82
2024/03/18 12:28:54;;;;;;;12.33;7.83;;;;;;;;;;5039611;28;20209;-81
2024/03/18 12:31:59;;;;;;;9.07;4.73;;;;;;;;;;5039811;28;20216;-82
2024/03/18 12:35:08;;;;;;;7.63;4.87;;;;;;;;;;5040642;28;20185;-83
2024/03/18 12:38:12;;;;;;;9.80;5.53;;;;;;;;;;5027894;28;20181;-83
2024/03/18 12:41:18;;;;;;;10.27;7.17;;;;;;;;;;5039660;28;20180;-83
2024/03/18 12:44:23;;;;;;;12.87;8.70;;;;;;;;;;5039371;28;20208;-84
2024/03/18 12:47:27;;;;;;;15.73;10.23;;;;;;;;;;5040148;28;20181;-83
2024/03/18 12:50:32;;;;;;;24.50;16.07;;;;;;;;;;5051661;28;20184;-84
2024/03/18 12:53:37;;;;;;;11.80;7.73;;;;;;;;;;5040330;28;20526;-84
2024/03/18 12:56:41;;;;;;;19.47;13.97;;;;;;;;;;5039748;28;20181;-84
2024/03/18 12:59:46;;;;;;;20.30;12.93;;;;;;;;;;5028414;28;20187;-85
2024/03/18 13:02:50;;;;;;;25.30;17.80;;;;;;;;;;5038331;28;20243;-84
2024/03/18 13:05:54;;;;;;;15.80;9.87;;;;;;;;;;5040437;28;20550;-84
2024/03/18 13:08:59;;;;;;;18.77;12.47;;;;;;;;;;5029167;28;20212;-84
2024/03/18 13:12:03;;;;;;;27.10;16.10;;;;;;;;;;5038419;28;20219;-84
2024/03/18 13:15:08;;;;;;;28.10;16.07;;;;;;;;;;5039269;28;20196;-85
2024/03/18 13:18:12;;;;;;;20.57;13.80;;;;;;;;;;5039061;28;20188;-84
2024/03/18 13:21:16;;;;;;;14.83;9.87;;;;;;;;;;5039915;28;20184;-84
2024/03/18 13:24:20;;;;;;;27.90;16.23;;;;;;;;;;5038585;28;20180;-86
2024/03/18 13:27:25;;;;;;;15.50;10.50;;;;;;;;;;5039111;28;20196;-86
2024/03/18 13:30:29;;;;;;;12.63;7.83;;;;;;;;;;5026844;28;20228;-85
2024/03/18 13:33:33;;;;;;;16.73;11.13;;;;;;;;;;5036400;28;20189;-85
2024/03/18 13:36:37;;;;;;;12.27;8.73;;;;;;;;;;5037638;28;20192;-85
2024/03/18 13:39:44;;;;;;;13.77;7.23;;;;;;;;;;5039763;28;20177;-84
2024/03/18 13:42:49;;;;;;;10.93;9.07;;;;;;;;;;5026329;28;20217;-84
2024/03/18 13:45:54;;;;;;;10.63;5.63;;;;;;;;;;5037795;28;20546;-84
2024/03/18 13:49:03;;;;;;;7.53;5.67;;;;;;;;;;5038292;28;20558;-84
2024/03/18 13:52:13;;;;;;;11.07;6.20;;;;;;;;;;5037274;28;20216;-85
2024/03/18 13:55:19;;;;;;;8.90;5.97;;;;;;;;;;5038466;28;20181;-84
2024/03/18 13:58:23;;;;;;;7.33;6.07;;;;;;;;;;5037028;28;20520;-85
2024/03/18 14:01:28;;;;;;;7.40;6.00;;;;;;;;;;5038200;28;20217;-86
2024/03/18 14:04:34;;;;;;;10.93;6.20;;;;;;;;;;5038338;28;20181;-84
2024/03/18 14:07:38;;;;;;;9.00;6.20;;;;;;;;;;5037885;28;20181;-83
2024/03/18 14:10:42;;;;;;;22.20;14.77;;;;;;;;;;5025718;28;20208;-84
2024/03/18 14:13:46;;;;;;;7.80;5.00;;;;;;;;;;5026318;28;20260;-84
2024/03/18 14:16:50;;;;;;;6.97;4.17;;;;;;;;;;5049225;28;20184;-85
2024/03/18 14:19:57;;;;;;;12.23;5.63;;;;;;;;;;5037625;28;20173;-85
2024/03/18 14:23:03;;;;;;;12.53;4.43;;;;;;;;;;5037300;28;20216;-84
2024/03/18 14:26:10;;;;;;;12.80;4.33;;;;;;;;;;5037747;28;20185;-85
2024/03/18 14:29:14;;;;;;;8.27;4.80;;;;;;;;;;5037691;28;20213;-83
2024/03/18 14:32:19;;;;;;;7.57;4.87;;;;;;;;;;5014683;28;20212;-83
2024/03/18 14:35:23;;;;;;;9.33;4.73;;;;;;;;;;5037778;28;20184;-83
2024/03/18 14:38:27;;;;;;;9.43;5.73;;;;;;;;;;5037162;28;20180;-83
2024/03/18 14:41:35;;;;;;;7.53;4.73;;;;;;;;;;5037933;28;20562;-84
2024/03/18 14:44:39;;;;;;;8.73;5.17;;;;;;;;;;5023981;28;20554;-83
2024/03/18 14:47:44;;;;;;;9.10;5.83;;;;;;;;;;5035568;28;20638;-80
2024/03/18 14:50:48;;;;;;;10.33;5.97;;;;;;;;;;5035624;28;20208;-80
2024/03/18 14:53:52;;;;;;;8.40;5.53;;;;;;;;;;5035168;28;20177;-83
2024/03/18 14:56:56;;;;;;;12.07;6.23;;;;;;;;;;5035423;28;20180;-84
2024/03/18 15:00:00;;;;;;;8.83;6.37;;;;;;;;;;5035224;28;20177;-81
2024/03/18 15:03:06;;;;;;;20.03;13.80;;;;;;;;;;5035577;28;20220;-81
2024/03/18 15:06:11;;;;;;;10.23;6.80;;;;;;;;;;5035559;28;20188;-80
2024/03/18 15:09:15;;;;;;;13.07;6.77;;;;;;;;;;5036620;28;20205;-81
2024/03/18 15:12:19;;;;;;;8.40;6.40;;;;;;;;;;5036679;28;20216;-83
2024/03/18 15:15:23;;;;;;;12.63;7.47;;;;;;;;;;5046013;28;20184;-81
2024/03/18 15:18:27;;;;;;;11.60;7.70;;;;;;;;;;5036100;28;20207;-81
2024/03/18 15:21:34;;;;;;;9.73;6.93;;;;;;;;;;5035669;28;20212;-84
2024/03/18 15:24:39;;;;;;;10.20;7.03;;;;;;;;;;5035893;28;20181;-87
2024/03/18 15:27:46;;;;;;;12.90;6.73;;;;;;;;;;5039088;28;20181;-85
2024/03/18 15:30:50;;;;;;;12.43;8.17;;;;;;;;;;5039865;28;20204;-85
2024/03/18 15:33:54;;;;;;;15.90;11.17;;;;;;;;;;5039844;28;20181;-85
2024/03/18 15:36:58;;;;;;;12.80;10.10;;;;;;;;;;5042143;28;20184;-85
2024/03/18 15:40:07;;;;;;;11.97;9.10;;;;;;;;;;5040787;28;20184;-83
2024/03/18 15:43:11;;;;;;;18.10;11.70;;;;;;;;;;5026886;28;20221;-85
2024/03/18 15:46:15;;;;;;;16.37;12.43;;;;;;;;;;5041348;28;20180;-81
2024/03/18 15:49:19;;;;;;;12.53;9.83;;;;;;;;;;5039646;28;20216;-82
2024/03/18 15:52:23;;;;;;;12.37;9.57;;;;;;;;;;5046131;28;20216;-84
2024/03/18 15:55:27;;;;;;;13.43;9.73;;;;;;;;;;5038236;28;20181;-85
2024/03/18 15:58:32;;;;;;;14.20;9.57;;;;;;;;;;5039112;28;20181;-84
2024/03/18 16:01:36;;;;;;;15.00;10.27;;;;;;;;;;5027276;28;20246;-85
2024/03/18 16:04:40;;;;;;;43.07;28.40;;;;;;;;;;5039118;28;20545;-80
2024/03/18 16:07:44;;;;;;;15.27;10.90;;;;;;;;;;5039023;28;20192;-85
2024/03/18 16:10:49;;;;;;;14.83;9.00;;;;;;;;;;5027984;28;20220;-84
2024/03/18 16:13:53;;;;;;;12.33;10.07;;;;;;;;;;5027895;28;20173;-85
2024/03/18 16:16:57;;;;;;;17.33;11.20;;;;;;;;;;5039721;28;20664;-85
2024/03/18 16:20:03;;;;;;;21.07;16.53;;;;;;;;;;5039483;28;20183;-85
2024/03/18 16:23:08;;;;;;;13.70;9.13;;;;;;;;;;5043208;28;20227;-85
2024/03/18 16:26:12;;;;;;;13.80;11.17;;;;;;;;;;5028064;28;20185;-85
2024/03/18 16:29:17;;;;;;;14.90;9.80;;;;;;;;;;5040332;28;20184;-86
2024/03/18 16:32:21;;;;;;;17.07;11.17;;;;;;;;;;5039300;28;20224;-85
2024/03/18 16:35:25;;;;;;;15.23;10.57;;;;;;;;;;5039538;28;20195;-84
2024/03/18 16:38:29;;;;;;;12.47;9.17;;;;;;;;;;5048595;28;20192;-85
2024/03/18 16:41:34;;;;;;;9.37;7.67;;;;;;;;;;5038591;28;20216;-85
2024/03/18 16:44:38;;;;;;;13.93;8.03;;;;;;;;;;5026613;28;20216;-84
2024/03/18 16:47:43;;;;;;;11.03;7.93;;;;;;;;;;5038987;28;20181;-84
2024/03/18 16:50:47;;;;;;;10.53;7.03;;;;;;;;;;5038648;28;20204;-84
2024/03/18 16:53:51;;;;;;;13.13;8.07;;;;;;;;;;5037726;28;20184;-84
2024/03/18 16:56:55;;;;;;;13.87;7.87;;;;;;;;;;5039032;28;20188;-85
2024/03/18 16:59:59;;;;;;;10.60;7.03;;;;;;;;;;5015947;28;20180;-84
2024/03/18 17:03:03;;;;;;;14.83;7.57;;;;;;;;;;5039592;28;20220;-86
2024/03/18 17:06:07;;;;;;;12.20;7.23;;;;;;;;;;5027725;28;20523;-86
2024/03/18 17:09:12;;;;;;;10.90;6.87;;;;;;;;;;5039766;28;20185;-86
2024/03/18 17:12:16;;;;;;;9.13;7.00;;;;;;;;;;5039246;28;20216;-85
2024/03/18 17:15:21;;;;;;;11.10;7.13;;;;;;;;;;5041965;28;20177;-85
2024/03/18 17:18:25;;;;;;;10.77;6.97;;;;;;;;;;5039892;28;20181;-85
2024/03/18 17:21:29;;;;;;;8.70;6.67;;;;;;;;;;5037585;28;20208;-86
2024/03/18 17:24:34;;;;;;;9.83;7.30;;;;;;;;;;5037760;28;20189;-85
2024/03/18 17:27:38;;;;;;;11.17;7.13;;;;;;;;;;5049361;28;20177;-85
2024/03/18 17:30:44;;;;;;;10.43;6.67;;;;;;;;;;5038423;28;20212;-85
2024/03/18 17:33:48;;;;;;;12.23;6.83;;;;;;;;;;5037862;28;20181;-86
2024/03/18 17:36:52;;;;;;;14.17;7.70;;;;;;;;;;5038276;28;20185;-85
2024/03/18 17:39:56;;;;;;;12.50;8.00;;;;;;;;;;5027280;28;20177;-87
2024/03/18 17:43:01;;;;;;;11.83;7.20;;;;;;;;;;5038224;28;20217;-85
2024/03/18 17:46:06;;;;;;;10.20;6.63;;;;;;;;;;5027164;28;20177;-85
2024/03/18 17:49:11;;;;;;;13.30;7.97;;;;;;;;;;5037954;28;20638;-85
2024/03/18 17:52:15;;;;;;;10.63;7.63;;;;;;;;;;5025663;28;20208;-87
2024/03/18 17:55:19;;;;;;;7.90;6.40;;;;;;;;;;5037066;28;20184;-87
2024/03/18 17:58:26;;;;;;;9.93;6.87;;;;;;;;;;5037738;28;20181;-85
2024/03/18 18:01:31;;;;;;;8.77;6.63;;;;;;;;;;5038046;28;20216;-85
2024/03/18 18:04:39;;;;;;;10.73;6.23;;;;;;;;;;5027149;28;20173;-85
2024/03/18 18:07:43;;;;;;;11.73;6.37;;;;;;;;;;5037817;28;20181;-85
2024/03/18 18:10:47;;;;;;;11.67;5.57;;;;;;;;;;5036597;28;20213;-85
2024/03/18 18:13:51;;;;;;;9.60;5.80;;;;;;;;;;5037371;28;20181;-86
2024/03/18 18:16:57;;;;;;;7.03;5.70;;;;;;;;;;5037055;28;20180;-85
2024/03/18 18:20:03;;;;;;;11.70;5.70;;;;;;;;;;5037323;28;20519;-86
2024/03/18 18:23:08;;;;;;;8.23;5.67;;;;;;;;;;5040882;28;20216;-85
2024/03/18 18:26:12;;;;;;;7.63;5.10;;;;;;;;;;5039250;28;20185;-86
2024/03/18 18:29:18;;;;;;;9.20;6.17;;;;;;;;;;5041404;28;20303;-85